Time;durP1;ratioP1;P1;durP2;ratioP2;P2;SDS_P1;SDS_P2;PMS_P1;PMS_P2;Temp;Humidity;BMP_temperature;BMP_pressure;BME280_temperature;BME280_humidity;BME280_pressure;Samples;Min_cycle;Max_cycle;Signal;HPM_P1;HPM_P2
2023/09/14 00:01:03;;;;;;;5.83;2.70;;;13.30;99.90;;;;;;5034700;28;20521;-73
2023/09/14 00:03:31;;;;;;;6.00;3.00;;;13.30;99.90;;;;;;5034146;28;20862;-73
2023/09/14 00:06:00;;;;;;;4.60;2.60;;;13.20;99.90;;;;;;5034069;28;21036;-73
2023/09/14 00:08:30;;;;;;;4.27;2.30;;;13.30;99.90;;;;;;5034160;28;20437;-73
2023/09/14 00:11:00;;;;;;;4.03;2.23;;;13.20;99.90;;;;;;5034143;28;20415;-73
2023/09/14 00:13:28;;;;;;;7.20;3.00;;;13.20;99.90;;;;;;5033906;28;20518;-73
2023/09/14 00:15:58;;;;;;;6.57;2.90;;;13.20;99.90;;;;;;5033926;28;20435;-73
2023/09/14 00:18:27;;;;;;;4.67;2.50;;;13.20;99.90;;;;;;5034218;28;21003;-73
2023/09/14 00:20:57;;;;;;;4.20;2.30;;;13.20;99.90;;;;;;5034149;28;20441;-73
2023/09/14 00:23:25;;;;;;;5.60;2.70;;;13.20;99.90;;;;;;5032556;28;20962;-73
2023/09/14 00:25:53;;;;;;;5.73;2.57;;;13.20;99.90;;;;;;5032805;28;20937;-73
2023/09/14 00:28:21;;;;;;;2.90;2.30;;;13.10;99.90;;;;;;5032464;28;20451;-73
2023/09/14 00:30:52;;;;;;;5.00;2.90;;;13.10;99.90;;;;;;5032461;28;20969;-73
2023/09/14 00:33:23;;;;;;;4.07;2.03;;;13.10;99.90;;;;;;5032497;28;20809;-73
2023/09/14 00:35:51;;;;;;;5.27;2.27;;;13.10;99.90;;;;;;5033938;28;20462;-73
2023/09/14 00:38:20;;;;;;;2.97;2.20;;;13.10;99.90;;;;;;5032293;28;20993;-73
2023/09/14 00:40:48;;;;;;;11.00;2.77;;;13.10;99.90;;;;;;5033579;28;20445;-73
2023/09/14 00:43:16;;;;;;;2.90;2.00;;;13.10;99.90;;;;;;5032470;28;20477;-73
2023/09/14 00:45:45;;;;;;;5.30;2.50;;;13.10;99.90;;;;;;5032325;28;20478;-73
2023/09/14 00:48:13;;;;;;;4.47;2.20;;;13.10;99.90;;;;;;5032163;28;20440;-73
2023/09/14 00:50:44;;;;;;;5.03;2.30;;;13.10;99.90;;;;;;5074506;23;20563;-92
2023/09/14 00:53:17;;;;;;;5.10;2.43;;;13.10;99.90;;;;;;5078251;28;20450;-92
2023/09/14 00:55:47;;;;;;;5.40;2.67;;;13.10;99.90;;;;;;5078297;28;20430;-93
2023/09/14 00:58:18;;;;;;;3.40;1.70;;;13.30;99.90;;;;;;5077939;28;20450;-92
2023/09/14 01:00:53;;;;;;;3.50;2.20;;;13.20;99.90;;;;;;5078048;28;20476;-92
2023/09/14 01:03:25;;;;;;;4.90;2.23;;;13.10;99.90;;;;;;5078175;28;20446;-93
2023/09/14 01:05:59;;;;;;;7.20;2.50;;;13.10;99.90;;;;;;5077860;28;20461;-93
2023/09/14 01:08:28;;;;;;;4.60;2.37;;;13.10;99.90;;;;;;5078168;28;20425;-92
2023/09/14 01:10:57;;;;;;;4.03;1.80;;;13.10;99.90;;;;;;5078014;28;20454;-92
2023/09/14 01:13:38;;;;;;;3.10;2.20;;;13.00;99.90;;;;;;5078159;28;20465;-93
2023/09/14 01:16:17;;;;;;;6.90;2.30;;;13.20;99.90;;;;;;5077984;28;20460;-93
2023/09/14 01:18:57;;;;;;;3.73;2.20;;;13.10;99.90;;;;;;5077906;28;20544;-92
2023/09/14 01:21:56;;;;;;;5.10;2.00;;;13.10;99.90;;;;;;5078068;28;20454;-93
2023/09/14 01:24:36;;;;;;;5.80;2.57;;;13.10;99.90;;;;;;5077932;28;20422;-93
2023/09/14 01:27:09;;;;;;;3.77;2.40;;;13.00;99.90;;;;;;5078039;28;20422;-94
2023/09/14 01:29:38;;;;;;;7.27;2.70;;;13.00;99.90;;;;;;5077603;28;20518;-93
2023/09/14 01:32:20;;;;;;;5.00;2.30;;;13.00;99.90;;;;;;5077764;28;20437;-94
2023/09/14 01:34:49;;;;;;;3.43;1.63;;;13.00;99.90;;;;;;5077922;28;20452;-93
2023/09/14 01:37:22;;;;;;;4.57;2.33;;;13.10;99.90;;;;;;5077700;28;20428;-93
2023/09/14 01:39:53;;;;;;;3.27;2.47;;;13.00;99.90;;;;;;5077721;28;20505;-93
2023/09/14 01:42:24;;;;;;;4.87;1.97;;;13.00;99.90;;;;;;5077654;28;20422;-93
2023/09/14 01:44:53;;;;;;;5.70;2.30;;;13.00;99.90;;;;;;5077716;28;20426;-93
2023/09/14 01:47:23;;;;;;;5.03;2.10;;;13.00;99.90;;;;;;5077599;28;20454;-94
2023/09/14 01:49:52;;;;;;;3.67;2.20;;;12.90;99.90;;;;;;5077639;28;20426;-93
2023/09/14 01:52:28;;;;;;;4.90;2.30;;;12.90;99.90;;;;;;5077588;28;20426;-93
2023/09/14 01:54:56;;;;;;;3.70;1.90;;;12.90;99.90;;;;;;5087846;23;20425;-75
2023/09/14 01:57:26;;;;;;;4.33;1.90;;;12.90;99.90;;;;;;5051381;28;20444;-75
2023/09/14 01:59:55;;;;;;;6.23;2.87;;;12.90;99.90;;;;;;5051447;28;20979;-75
2023/09/14 02:02:25;;;;;;;4.50;2.70;;;12.80;99.90;;;;;;5052160;28;20453;-75
2023/09/14 02:04:53;;;;;;;3.43;2.10;;;12.80;99.90;;;;;;5055170;28;20461;-75
2023/09/14 02:07:21;;;;;;;5.50;3.10;;;12.80;99.90;;;;;;5056519;28;20449;-75
2023/09/14 02:09:51;;;;;;;4.30;2.50;;;12.80;99.90;;;;;;5055158;28;20438;-75
2023/09/14 02:12:20;;;;;;;5.67;2.33;;;12.80;99.90;;;;;;5055042;28;20960;-74
2023/09/14 02:14:49;;;;;;;3.90;2.40;;;12.80;99.90;;;;;;5056512;28;20462;-74
2023/09/14 02:17:19;;;;;;;4.17;2.60;;;12.80;99.90;;;;;;5054919;28;20446;-74
2023/09/14 02:19:47;;;;;;;3.97;2.47;;;12.70;99.90;;;;;;5055601;28;20871;-74
2023/09/14 02:22:17;;;;;;;4.43;2.13;;;12.70;99.90;;;;;;5056462;28;20827;-74
2023/09/14 02:24:47;;;;;;;9.93;3.43;;;12.70;99.90;;;;;;5056081;28;20986;-74
2023/09/14 02:27:15;;;;;;;6.47;2.50;;;12.70;99.90;;;;;;5054913;28;20450;-75
2023/09/14 02:29:43;;;;;;;4.10;2.37;;;12.70;99.90;;;;;;5055977;28;20995;-74
2023/09/14 02:32:13;;;;;;;6.27;3.37;;;12.70;99.90;;;;;;5054773;28;20477;-75
2023/09/14 02:34:41;;;;;;;3.47;1.80;;;12.70;99.90;;;;;;5055801;28;20504;-74
2023/09/14 02:37:09;;;;;;;7.57;2.80;;;12.70;99.90;;;;;;5054662;28;20496;-75
2023/09/14 02:39:38;;;;;;;2.60;2.00;;;12.70;99.90;;;;;;5054647;28;20913;-75
2023/09/14 02:42:06;;;;;;;3.23;2.23;;;12.70;99.90;;;;;;5055989;28;20438;-74
2023/09/14 02:44:37;;;;;;;6.40;2.17;;;12.70;99.90;;;;;;5054368;28;20461;-74
2023/09/14 02:47:06;;;;;;;4.63;2.10;;;12.70;99.90;;;;;;5054487;28;20488;-74
2023/09/14 02:49:35;;;;;;;5.50;2.40;;;12.60;99.90;;;;;;5054383;28;21063;-75
2023/09/14 02:52:04;;;;;;;4.70;2.13;;;12.70;99.90;;;;;;5054291;28;20880;-74
2023/09/14 02:54:32;;;;;;;4.43;2.37;;;12.60;99.90;;;;;;5054139;28;20458;-74
2023/09/14 02:57:01;;;;;;;3.33;2.33;;;12.60;99.90;;;;;;5055433;28;20442;-74
2023/09/14 02:59:29;;;;;;;4.80;2.57;;;12.60;99.90;;;;;;5053999;28;20975;-74
2023/09/14 03:01:57;;;;;;;5.27;2.13;;;12.60;99.90;;;;;;5054302;28;20442;-74
2023/09/14 03:04:26;;;;;;;3.57;2.10;;;12.60;99.90;;;;;;5055403;28;20839;-75
2023/09/14 03:06:56;;;;;;;4.90;2.90;;;12.60;99.90;;;;;;5055422;28;20434;-74
2023/09/14 03:09:25;;;;;;;5.70;2.60;;;12.60;99.90;;;;;;5054394;28;20890;-74
2023/09/14 03:11:54;;;;;;;4.47;2.10;;;12.60;99.90;;;;;;5053996;28;20442;-74
2023/09/14 03:14:23;;;;;;;4.83;2.70;;;12.60;99.90;;;;;;5054232;28;20572;-74
2023/09/14 03:16:51;;;;;;;5.30;3.17;;;12.60;99.90;;;;;;5054150;28;20445;-74
2023/09/14 03:19:20;;;;;;;4.00;2.90;;;12.60;99.90;;;;;;5055382;28;20492;-75
2023/09/14 03:21:48;;;;;;;4.00;3.00;;;12.60;99.90;;;;;;5053855;28;20442;-74
2023/09/14 03:24:18;;;;;;;4.17;2.63;;;12.60;99.90;;;;;;5053640;28;20897;-74
2023/09/14 03:26:46;;;;;;;4.53;2.97;;;12.60;99.90;;;;;;5053602;28;21017;-74
2023/09/14 03:29:15;;;;;;;3.73;2.50;;;12.50;99.90;;;;;;5054877;28;20431;-74
2023/09/14 03:31:44;;;;;;;6.20;4.17;;;12.50;99.90;;;;;;5053590;28;20500;-75
2023/09/14 03:34:12;;;;;;;6.43;5.30;;;12.50;99.90;;;;;;5053630;28;20876;-75
2023/09/14 03:36:40;;;;;;;3.23;2.60;;;12.50;99.90;;;;;;5053581;28;20508;-75
2023/09/14 03:39:10;;;;;;;5.13;3.00;;;12.50;99.90;;;;;;5053585;28;20466;-75
2023/09/14 03:41:40;;;;;;;4.10;3.60;;;12.50;99.90;;;;;;5053442;28;20528;-75
2023/09/14 03:44:08;;;;;;;3.87;3.00;;;12.50;99.90;;;;;;5054734;28;20826;-74
2023/09/14 03:46:36;;;;;;;3.43;2.80;;;12.50;99.90;;;;;;5054554;28;20504;-75
2023/09/14 03:49:06;;;;;;;4.30;2.80;;;12.50;99.90;;;;;;5053122;28;20480;-74
2023/09/14 03:51:35;;;;;;;3.10;2.53;;;12.40;99.90;;;;;;5053173;28;20517;-74
2023/09/14 03:54:03;;;;;;;7.23;3.50;;;12.40;99.90;;;;;;5054565;28;20492;-74
2023/09/14 03:56:34;;;;;;;5.97;3.00;;;12.40;99.90;;;;;;5054354;28;20446;-74
2023/09/14 03:59:04;;;;;;;4.57;3.13;;;12.40;99.90;;;;;;5053028;28;20477;-74
2023/09/14 04:01:32;;;;;;;7.27;3.50;;;12.40;99.90;;;;;;5053021;28;20442;-75
2023/09/14 04:04:02;;;;;;;7.00;3.10;;;12.50;99.90;;;;;;5052837;28;20520;-74
2023/09/14 04:06:30;;;;;;;6.10;3.77;;;12.40;99.90;;;;;;5054103;28;20438;-75
2023/09/14 04:08:58;;;;;;;3.43;2.93;;;12.40;99.90;;;;;;5054270;28;20465;-75
2023/09/14 04:11:26;;;;;;;4.40;3.23;;;12.40;99.90;;;;;;5052871;28;20438;-74
2023/09/14 04:13:56;;;;;;;5.50;3.00;;;12.40;99.90;;;;;;5052996;28;20804;-75
2023/09/14 04:16:28;;;;;;;5.70;3.33;;;12.40;99.90;;;;;;5054223;28;20437;-75
2023/09/14 04:19:00;;;;;;;5.30;2.90;;;12.40;99.90;;;;;;5053136;28;20978;-75
2023/09/14 04:21:30;;;;;;;5.37;2.80;;;12.40;99.90;;;;;;5052794;28;20441;-74
2023/09/14 04:23:58;;;;;;;3.93;3.07;;;12.40;99.90;;;;;;5052571;28;20466;-74
2023/09/14 04:26:27;;;;;;;4.33;3.20;;;12.40;99.90;;;;;;5052243;28;20881;-74
2023/09/14 04:28:56;;;;;;;7.10;2.90;;;12.30;99.90;;;;;;5052446;28;20438;-74
2023/09/14 04:31:26;;;;;;;5.57;3.47;;;12.30;99.90;;;;;;5053735;28;20441;-74
2023/09/14 04:33:54;;;;;;;6.60;3.23;;;12.30;99.90;;;;;;5052610;28;20476;-74
2023/09/14 04:36:23;;;;;;;5.37;3.60;;;12.30;99.90;;;;;;5052453;28;20442;-74
2023/09/14 04:38:51;;;;;;;4.27;2.80;;;12.30;99.90;;;;;;5052585;28;20442;-74
2023/09/14 04:41:20;;;;;;;7.20;3.17;;;12.30;99.90;;;;;;5052545;28;20533;-74
2023/09/14 04:43:48;;;;;;;4.20;3.47;;;12.30;99.90;;;;;;5052318;28;20462;-74
2023/09/14 04:46:16;;;;;;;5.67;2.70;;;12.30;99.90;;;;;;5052266;28;20859;-74
2023/09/14 04:48:48;;;;;;;4.27;3.00;;;12.30;99.90;;;;;;5052182;28;20914;-74
2023/09/14 04:51:46;;;;;;;6.57;3.60;;;12.30;99.90;;;;;;5052207;28;20530;-74
2023/09/14 04:54:22;;;;;;;5.10;3.17;;;12.30;99.90;;;;;;5052080;28;20473;-74
2023/09/14 04:56:50;;;;;;;6.90;3.73;;;12.30;99.90;;;;;;5053443;28;20461;-74
2023/09/14 04:59:18;;;;;;;5.20;3.40;;;12.30;99.90;;;;;;5053561;28;20438;-74
2023/09/14 05:01:47;;;;;;;6.33;3.20;;;12.30;99.90;;;;;;5051950;28;20813;-75
2023/09/14 05:04:16;;;;;;;4.50;3.10;;;12.30;99.90;;;;;;5052003;28;20458;-74
2023/09/14 05:06:45;;;;;;;5.47;2.93;;;12.30;99.90;;;;;;5053311;28;20473;-74
2023/09/14 05:09:13;;;;;;;4.23;2.90;;;12.30;99.90;;;;;;5052039;28;21031;-74
2023/09/14 05:11:42;;;;;;;4.57;2.97;;;12.40;99.90;;;;;;5051929;28;20802;-74
2023/09/14 05:14:10;;;;;;;5.30;3.27;;;12.40;99.90;;;;;;5052722;28;20535;-74
2023/09/14 05:16:38;;;;;;;4.47;2.90;;;12.40;99.90;;;;;;5053119;28;20492;-74
2023/09/14 05:19:06;;;;;;;5.13;2.97;;;12.40;99.90;;;;;;5051921;28;20438;-74
2023/09/14 05:21:36;;;;;;;6.63;3.70;;;12.40;99.90;;;;;;5051932;28;20480;-74
2023/09/14 05:24:05;;;;;;;4.00;2.50;;;12.50;99.90;;;;;;5052584;28;20515;-74
2023/09/14 05:26:33;;;;;;;5.37;4.00;;;12.50;99.90;;;;;;5052431;28;20533;-74
2023/09/14 05:29:02;;;;;;;4.60;2.90;;;12.50;99.90;;;;;;5051955;28;20453;-74
2023/09/14 05:31:30;;;;;;;6.00;2.67;;;12.50;99.90;;;;;;5051907;28;20477;-74
2023/09/14 05:33:58;;;;;;;3.97;2.77;;;12.50;99.90;;;;;;5051874;28;20515;-74
2023/09/14 05:36:26;;;;;;;4.73;2.43;;;12.60;99.90;;;;;;5051788;28;20521;-75
2023/09/14 05:38:56;;;;;;;7.13;3.00;;;12.60;99.90;;;;;;5055060;28;20449;-75
2023/09/14 05:41:24;;;;;;;5.50;3.40;;;12.60;99.90;;;;;;5057073;28;20469;-74
2023/09/14 05:43:53;;;;;;;5.10;2.93;;;12.60;99.90;;;;;;5057833;28;20495;-74
2023/09/14 05:46:21;;;;;;;4.13;2.63;;;12.70;99.90;;;;;;5057860;28;20442;-75
2023/09/14 05:48:49;;;;;;;6.33;3.60;;;12.70;99.90;;;;;;5056159;28;20525;-75
2023/09/14 05:51:17;;;;;;;3.87;2.63;;;12.70;99.90;;;;;;5056512;28;20810;-75
2023/09/14 05:53:46;;;;;;;8.53;2.90;;;12.70;99.90;;;;;;5055798;28;20466;-75
2023/09/14 05:56:16;;;;;;;4.53;2.90;;;12.80;99.90;;;;;;5055532;28;20465;-75
2023/09/14 05:58:45;;;;;;;5.63;2.90;;;12.80;99.90;;;;;;5055487;28;20904;-74
2023/09/14 06:01:17;;;;;;;5.90;3.40;;;12.80;99.90;;;;;;5055391;28;20462;-75
2023/09/14 06:03:46;;;;;;;6.63;3.30;;;12.80;99.90;;;;;;5055296;28;20475;-75
2023/09/14 06:06:15;;;;;;;5.40;2.73;;;12.80;99.90;;;;;;5055242;28;21041;-75
2023/09/14 06:08:43;;;;;;;3.80;2.63;;;12.90;99.90;;;;;;5055229;28;20525;-75
2023/09/14 06:11:12;;;;;;;4.93;2.73;;;12.90;99.90;;;;;;5055397;28;20445;-75
2023/09/14 06:13:41;;;;;;;5.30;2.63;;;12.90;99.90;;;;;;5055287;28;20469;-75
2023/09/14 06:16:11;;;;;;;7.17;3.77;;;13.00;99.90;;;;;;5056928;28;20438;-74
2023/09/14 06:18:39;;;;;;;4.47;2.70;;;13.00;99.90;;;;;;5057096;28;20440;-75
2023/09/14 06:21:07;;;;;;;4.07;2.73;;;13.00;99.90;;;;;;5056629;28;20474;-75
2023/09/14 06:23:36;;;;;;;4.37;3.10;;;13.10;99.90;;;;;;5055325;28;20474;-75
2023/09/14 06:26:04;;;;;;;6.80;3.00;;;13.10;99.90;;;;;;5055088;28;20944;-75
2023/09/14 06:28:32;;;;;;;4.83;2.90;;;13.20;99.90;;;;;;5056614;28;20520;-75
2023/09/14 06:31:08;;;;;;;3.03;2.40;;;13.20;99.90;;;;;;5056358;28;21001;-75
2023/09/14 06:33:39;;;;;;;4.97;2.90;;;13.30;99.90;;;;;;5055415;28;20458;-74
2023/09/14 06:36:19;;;;;;;5.27;2.70;;;13.30;99.90;;;;;;5056157;28;20806;-75
2023/09/14 06:38:50;;;;;;;4.50;2.70;;;13.40;99.90;;;;;;5055458;28;20446;-75
2023/09/14 06:41:22;;;;;;;4.03;2.37;;;13.40;99.90;;;;;;5055236;28;20466;-75
2023/09/14 06:43:50;;;;;;;2.60;2.40;;;13.50;99.90;;;;;;5056644;28;20481;-75
2023/09/14 06:46:21;;;;;;;3.90;2.33;;;13.50;99.90;;;;;;5056566;28;20434;-75
2023/09/14 06:48:49;;;;;;;5.00;2.67;;;13.60;99.90;;;;;;5054412;28;20468;-75
2023/09/14 06:51:17;;;;;;;6.37;2.70;;;13.60;99.90;;;;;;5056129;28;20718;-75
2023/09/14 06:53:45;;;;;;;3.33;2.20;;;13.60;99.90;;;;;;5056210;28;20462;-75
2023/09/14 06:56:15;;;;;;;7.30;2.80;;;13.70;99.90;;;;;;5056108;28;20861;-75
2023/09/14 06:58:43;;;;;;;3.80;2.57;;;13.70;99.90;;;;;;5056449;28;20439;-75
2023/09/14 07:01:11;;;;;;;9.73;3.70;;;13.80;99.90;;;;;;5055000;28;21002;-71
2023/09/14 07:03:41;;;;;;;4.87;2.90;;;13.80;99.90;;;;;;5055581;28;20449;-71
2023/09/14 07:06:09;;;;;;;5.97;3.03;;;13.80;99.90;;;;;;5055736;28;20506;-72
2023/09/14 07:08:40;;;;;;;6.17;2.60;;;13.90;99.90;;;;;;5055800;28;21007;-72
2023/09/14 07:11:09;;;;;;;4.00;2.40;;;13.90;99.90;;;;;;5054597;28;20450;-73
2023/09/14 07:13:37;;;;;;;2.80;2.27;;;14.00;99.90;;;;;;5054652;28;20828;-73
2023/09/14 07:16:05;;;;;;;3.73;2.80;;;14.00;99.90;;;;;;5054764;28;20871;-72
2023/09/14 07:18:34;;;;;;;4.77;2.50;;;14.00;99.90;;;;;;5054639;28;20449;-72
2023/09/14 07:21:04;;;;;;;4.27;2.40;;;14.10;99.90;;;;;;5055192;28;20474;-73
2023/09/14 07:23:32;;;;;;;6.20;2.60;;;14.10;99.90;;;;;;5055810;28;20552;-72
2023/09/14 07:26:02;;;;;;;3.30;2.00;;;14.20;99.90;;;;;;5055747;28;20434;-73
2023/09/14 07:28:30;;;;;;;4.93;2.83;;;14.30;99.90;;;;;;5055467;28;20516;-72
2023/09/14 07:31:04;;;;;;;4.23;2.17;;;14.30;99.90;;;;;;5056094;28;20477;-73
2023/09/14 07:33:32;;;;;;;5.60;2.20;;;14.30;99.90;;;;;;5054557;28;20465;-72
2023/09/14 07:36:02;;;;;;;3.33;2.23;;;14.40;99.90;;;;;;5058464;28;20421;-74
2023/09/14 07:38:30;;;;;;;5.80;2.53;;;14.40;99.90;;;;;;5056413;28;20484;-74
2023/09/14 07:40:58;;;;;;;2.73;2.00;;;14.50;99.90;;;;;;5055911;28;20877;-75
2023/09/14 07:43:27;;;;;;;3.07;2.20;;;14.50;99.90;;;;;;5055452;28;20454;-73
2023/09/14 07:45:56;;;;;;;5.30;2.77;;;14.60;99.90;;;;;;5055333;28;20576;-72
2023/09/14 07:48:24;;;;;;;5.57;2.70;;;14.60;99.90;;;;;;5053597;28;20809;-73
2023/09/14 07:50:52;;;;;;;6.17;2.30;;;14.70;99.90;;;;;;5055433;28;20479;-73
2023/09/14 07:53:22;;;;;;;4.23;2.37;;;14.70;99.90;;;;;;5054877;28;20464;-72
2023/09/14 07:55:53;;;;;;;4.43;2.83;;;14.80;99.90;;;;;;5054471;28;20457;-73
2023/09/14 07:58:22;;;;;;;2.97;2.03;;;14.80;99.90;;;;;;5053226;28;20451;-73
2023/09/14 08:00:50;;;;;;;4.20;2.60;;;14.90;99.90;;;;;;5053988;28;20438;-74
2023/09/14 08:03:18;;;;;;;9.27;2.87;;;14.90;99.90;;;;;;5053333;28;20565;-73
2023/09/14 08:05:47;;;;;;;3.43;1.70;;;15.00;99.90;;;;;;5053366;28;20456;-73
2023/09/14 08:08:15;;;;;;;4.40;1.90;;;15.10;99.90;;;;;;5053360;28;20446;-73
2023/09/14 08:10:49;;;;;;;5.13;2.33;;;15.20;99.90;;;;;;5054772;28;20850;-73
2023/09/14 08:13:18;;;;;;;5.50;2.03;;;15.20;99.90;;;;;;5053135;28;20561;-73
2023/09/14 08:15:46;;;;;;;4.03;1.60;;;15.30;99.90;;;;;;5054376;28;20452;-72
2023/09/14 08:18:15;;;;;;;3.70;1.63;;;15.30;99.90;;;;;;5054265;28;20486;-76
2023/09/14 08:20:43;;;;;;;5.43;1.90;;;15.40;99.90;;;;;;5054337;28;20525;-73
2023/09/14 08:23:13;;;;;;;5.43;1.77;;;15.50;99.90;;;;;;5053099;28;20494;-73
2023/09/14 08:25:44;;;;;;;4.07;1.43;;;15.50;99.90;;;;;;5052889;28;20446;-73
2023/09/14 08:28:16;;;;;;;3.00;1.70;;;15.60;99.90;;;;;;5054636;28;20529;-73
2023/09/14 08:30:45;;;;;;;2.10;1.50;;;15.70;99.90;;;;;;5054202;28;20419;-73
2023/09/14 08:33:13;;;;;;;3.50;1.50;;;15.80;99.90;;;;;;5054145;28;20438;-73
2023/09/14 08:35:45;;;;;;;4.47;1.30;;;15.80;99.90;;;;;;5054649;28;20423;-73
2023/09/14 08:38:13;;;;;;;3.13;1.80;;;16.00;99.90;;;;;;5054015;28;21010;-74
2023/09/14 08:40:43;;;;;;;2.07;1.13;;;16.10;99.90;;;;;;5052999;28;20442;-73
2023/09/14 08:43:14;;;;;;;3.10;1.30;;;16.10;99.90;;;;;;5053939;28;20502;-73
2023/09/14 08:45:44;;;;;;;3.90;1.50;;;16.20;99.90;;;;;;5054020;28;20414;-73
2023/09/14 08:48:14;;;;;;;3.50;1.57;;;16.30;99.90;;;;;;5053976;28;20428;-74
2023/09/14 08:50:44;;;;;;;2.10;1.00;;;16.40;99.90;;;;;;5053885;28;20825;-73
2023/09/14 08:53:14;;;;;;;4.43;1.40;;;16.40;99.90;;;;;;5054482;28;20400;-74
2023/09/14 08:55:43;;;;;;;2.90;1.30;;;16.50;99.90;;;;;;5053081;28;21000;-74
2023/09/14 08:58:12;;;;;;;2.20;1.40;;;16.50;99.90;;;;;;5053887;28;20500;-73
2023/09/14 09:00:44;;;;;;;3.90;1.40;;;16.60;99.90;;;;;;5054024;28;20533;-73
2023/09/14 09:03:13;;;;;;;2.10;1.20;;;16.60;99.90;;;;;;5053643;28;20460;-73
2023/09/14 09:05:42;;;;;;;5.73;1.20;;;16.70;99.90;;;;;;5053619;28;20948;-73
2023/09/14 09:08:13;;;;;;;1.80;0.93;;;16.70;99.90;;;;;;5052444;28;20949;-74
2023/09/14 09:10:42;;;;;;;1.57;0.80;;;16.70;99.90;;;;;;5053758;28;20418;-73
2023/09/14 09:13:10;;;;;;;4.80;1.00;;;16.80;99.90;;;;;;5052413;28;20496;-74
2023/09/14 09:15:38;;;;;;;1.80;1.00;;;16.90;99.90;;;;;;5054302;28;20417;-74
2023/09/14 09:18:10;;;;;;;2.90;1.00;;;17.00;99.90;;;;;;5054737;28;20442;-74
2023/09/14 09:20:40;;;;;;;2.00;1.10;;;17.00;99.90;;;;;;5053059;28;20470;-74
2023/09/14 09:23:09;;;;;;;2.50;1.07;;;17.10;99.90;;;;;;5052615;28;20939;-74
2023/09/14 09:25:46;;;;;;;2.80;1.03;;;17.20;99.90;;;;;;5054074;28;20408;-74
2023/09/14 09:28:14;;;;;;;2.10;1.00;;;17.30;99.90;;;;;;5052939;28;20429;-74
2023/09/14 09:30:44;;;;;;;3.97;1.07;;;17.40;99.90;;;;;;5054554;28;20465;-74
2023/09/14 09:33:14;;;;;;;2.20;1.00;;;17.40;99.90;;;;;;5052694;28;20473;-74
2023/09/14 09:35:42;;;;;;;2.30;1.30;;;17.40;99.90;;;;;;5053018;28;20889;-73
2023/09/14 09:38:14;;;;;;;5.13;1.43;;;17.40;99.90;;;;;;5054031;28;20484;-73
2023/09/14 09:40:43;;;;;;;2.10;1.00;;;17.40;99.90;;;;;;5052988;28;20427;-74
2023/09/14 09:43:15;;;;;;;3.13;1.00;;;17.40;99.90;;;;;;5052778;28;20557;-73
2023/09/14 09:45:46;;;;;;;4.70;1.40;;;17.40;99.90;;;;;;5054373;28;20393;-73
2023/09/14 09:48:16;;;;;;;2.30;0.80;;;17.40;99.90;;;;;;5052421;28;20448;-72
2023/09/14 09:50:45;;;;;;;3.13;1.30;;;17.40;99.90;;;;;;5053731;28;20929;-73
2023/09/14 09:53:15;;;;;;;3.53;1.00;;;17.50;99.90;;;;;;5052192;28;20436;-73
2023/09/14 09:55:45;;;;;;;6.10;1.40;;;17.50;99.90;;;;;;5053462;28;20922;-73
2023/09/14 09:58:16;;;;;;;2.80;0.90;;;17.50;99.90;;;;;;5052520;28;20424;-73
2023/09/14 10:00:45;;;;;;;1.80;1.00;;;17.50;99.90;;;;;;5053762;28;20433;-73
2023/09/14 10:03:18;;;;;;;2.33;0.90;;;17.50;99.90;;;;;;5052261;28;20474;-73
2023/09/14 10:05:47;;;;;;;3.77;1.43;;;17.50;99.90;;;;;;5054309;28;20414;-74
2023/09/14 10:08:19;;;;;;;3.00;1.10;;;17.50;99.90;;;;;;5053674;28;20470;-72
2023/09/14 10:10:51;;;;;;;3.93;1.20;;;17.50;99.90;;;;;;5053522;28;20422;-73
2023/09/14 10:13:22;;;;;;;6.50;1.70;;;17.50;99.90;;;;;;5053559;28;20996;-73
2023/09/14 10:15:53;;;;;;;4.60;1.87;;;17.50;99.90;;;;;;5052362;28;20454;-73
2023/09/14 10:18:25;;;;;;;2.53;1.30;;;17.60;99.90;;;;;;5053531;28;20418;-74
2023/09/14 10:20:55;;;;;;;1.77;1.00;;;17.60;99.90;;;;;;5054115;28;20418;-75
2023/09/14 10:23:24;;;;;;;1.93;1.10;;;17.60;99.90;;;;;;5052779;28;20912;-75
2023/09/14 10:25:53;;;;;;;2.23;0.80;;;17.60;99.90;;;;;;5057326;28;20438;-75
2023/09/14 10:28:22;;;;;;;2.43;1.20;;;17.60;99.90;;;;;;5057210;28;20470;-73
2023/09/14 10:30:52;;;;;;;2.70;1.40;;;17.60;99.90;;;;;;5057087;28;20419;-73
2023/09/14 10:33:24;;;;;;;3.07;1.40;;;17.60;99.90;;;;;;5054840;28;20977;-73
2023/09/14 10:35:56;;;;;;;2.90;1.07;;;17.60;99.90;;;;;;5055016;28;20436;-73
2023/09/14 10:38:24;;;;;;;2.80;1.10;;;17.60;99.90;;;;;;5056433;28;20426;-73
2023/09/14 10:40:53;;;;;;;3.23;1.17;;;17.60;99.90;;;;;;5054853;28;20413;-73
2023/09/14 10:43:22;;;;;;;2.40;1.10;;;17.60;99.90;;;;;;5057534;28;20459;-74
2023/09/14 10:45:56;;;;;;;4.70;1.43;;;17.60;99.90;;;;;;5060309;28;20438;-74
2023/09/14 10:48:29;;;;;;;3.97;1.07;;;17.60;99.90;;;;;;5056713;28;20474;-74
2023/09/14 10:50:58;;;;;;;2.70;1.13;;;17.60;99.90;;;;;;5057431;28;20393;-74
2023/09/14 10:53:28;;;;;;;1.97;1.00;;;17.70;99.90;;;;;;5056177;28;20462;-74
2023/09/14 10:55:57;;;;;;;5.43;1.70;;;17.70;99.90;;;;;;5056343;28;20454;-74
2023/09/14 10:58:25;;;;;;;6.13;2.60;;;17.70;99.90;;;;;;5055971;28;20436;-74
2023/09/14 11:00:59;;;;;;;3.87;1.20;;;17.70;99.90;;;;;;5055919;28;20488;-74
2023/09/14 11:04:11;;;;;;;2.60;1.10;;;17.80;99.90;;;;;;5055540;28;20478;-74
2023/09/14 11:06:44;;;;;;;3.10;1.10;;;17.80;99.90;;;;;;5055612;28;20401;-74
2023/09/14 11:09:17;;;;;;;2.53;1.57;;;17.80;99.90;;;;;;5054155;28;20425;-74
2023/09/14 11:11:50;;;;;;;2.70;1.37;;;17.80;99.90;;;;;;5055383;28;20824;-74
2023/09/14 11:14:23;;;;;;;3.77;1.30;;;17.80;99.90;;;;;;5055556;28;20462;-74
2023/09/14 11:16:56;;;;;;;1.53;0.90;;;17.90;99.90;;;;;;5053898;28;20971;-74
2023/09/14 11:19:48;;;;;;;2.23;1.10;;;17.80;99.90;;;;;;5053873;28;20853;-74
2023/09/14 11:22:27;;;;;;;2.03;1.23;;;17.90;99.90;;;;;;5055134;28;20446;-74
2023/09/14 11:24:56;;;;;;;3.83;1.60;;;17.90;99.90;;;;;;5054957;28;20473;-74
2023/09/14 11:27:27;;;;;;;2.10;1.20;;;17.90;99.90;;;;;;5055259;28;20460;-74
2023/09/14 11:29:57;;;;;;;2.77;1.47;;;17.90;99.90;;;;;;5054909;28;20462;-74
2023/09/14 11:32:29;;;;;;;3.70;1.40;;;17.90;99.90;;;;;;5053736;28;20416;-74
2023/09/14 11:35:01;;;;;;;3.00;1.43;;;17.90;99.90;;;;;;5055177;28;20987;-74
2023/09/14 11:37:32;;;;;;;3.60;1.20;;;17.90;99.90;;;;;;5054794;28;20795;-74
2023/09/14 11:40:12;;;;;;;5.83;1.47;;;17.90;99.90;;;;;;5054756;28;20472;-74
2023/09/14 11:43:20;;;;;;;4.43;1.33;;;18.00;99.90;;;;;;5053630;28;20903;-74
2023/09/14 11:46:07;;;;;;;6.30;1.93;;;18.00;99.90;;;;;;5031710;28;20450;-74
2023/09/14 11:48:48;;;;;;;2.10;1.00;;;18.00;99.90;;;;;;5054658;28;20414;-74
2023/09/14 11:51:24;;;;;;;3.27;1.53;;;18.00;99.90;;;;;;5054959;28;20912;-74
2023/09/14 11:53:56;;;;;;;2.30;1.40;;;18.00;99.90;;;;;;5054453;28;20959;-74
2023/09/14 11:56:26;;;;;;;3.50;1.10;;;18.00;99.90;;;;;;5054397;28;20450;-74
2023/09/14 11:58:58;;;;;;;3.13;1.17;;;18.00;99.90;;;;;;5054635;28;20929;-74
2023/09/14 12:01:27;;;;;;;4.07;1.17;;;18.00;99.90;;;;;;5054810;28;20429;-74
2023/09/14 12:03:57;;;;;;;4.40;1.90;;;18.00;99.90;;;;;;5054024;28;20492;-74
2023/09/14 12:06:27;;;;;;;2.90;1.40;;;18.10;99.90;;;;;;5053070;28;21006;-74
2023/09/14 12:08:56;;;;;;;3.27;1.67;;;18.10;99.90;;;;;;5054593;28;20423;-74
2023/09/14 12:11:24;;;;;;;6.07;4.37;;;18.10;99.90;;;;;;5054316;28;20525;-74
2023/09/14 12:13:53;;;;;;;2.23;1.30;;;18.10;99.90;;;;;;5054329;28;20461;-74
2023/09/14 12:16:23;;;;;;;4.87;2.10;;;18.10;99.90;;;;;;5054039;28;20489;-74
2023/09/14 12:18:53;;;;;;;2.80;1.37;;;18.20;99.90;;;;;;5052885;28;20409;-75
2023/09/14 12:21:24;;;;;;;2.37;1.53;;;18.20;99.90;;;;;;5054173;28;20777;-75
2023/09/14 12:23:55;;;;;;;2.80;1.53;;;18.20;99.90;;;;;;5052625;28;20474;-75
2023/09/14 12:26:26;;;;;;;3.20;1.60;;;18.30;99.90;;;;;;5052952;28;20433;-75
2023/09/14 12:28:57;;;;;;;3.10;1.50;;;18.30;99.90;;;;;;5052614;28;20985;-75
2023/09/14 12:31:26;;;;;;;4.43;1.53;;;18.20;99.90;;;;;;5054128;28;20425;-75
2023/09/14 12:33:55;;;;;;;2.43;1.30;;;18.30;99.90;;;;;;5053673;28;20557;-74
2023/09/14 12:36:23;;;;;;;3.47;1.43;;;18.30;99.90;;;;;;5053721;28;20782;-75
2023/09/14 12:38:54;;;;;;;2.47;1.40;;;18.30;99.90;;;;;;5053774;28;20539;-75
2023/09/14 12:41:23;;;;;;;2.73;1.40;;;18.30;99.90;;;;;;5053729;28;20509;-74
2023/09/14 12:43:52;;;;;;;2.13;1.30;;;18.30;99.90;;;;;;5051979;28;20505;-75
2023/09/14 12:46:24;;;;;;;1.73;1.23;;;18.30;99.90;;;;;;5053248;28;20419;-75
2023/09/14 12:48:59;;;;;;;2.60;1.50;;;18.30;99.90;;;;;;5053788;28;20442;-75
2023/09/14 12:51:27;;;;;;;2.77;1.40;;;18.30;99.90;;;;;;5052197;28;20950;-75
2023/09/14 12:53:59;;;;;;;2.80;1.43;;;18.30;99.90;;;;;;5053377;28;20439;-75
2023/09/14 12:56:27;;;;;;;2.57;1.40;;;18.30;99.90;;;;;;5053370;28;20481;-75
2023/09/14 12:58:55;;;;;;;3.37;1.60;;;18.30;99.90;;;;;;5053494;28;20567;-75
2023/09/14 13:01:25;;;;;;;7.90;2.90;;;18.40;99.90;;;;;;5052040;28;20466;-76
2023/09/14 13:03:53;;;;;;;5.10;1.80;;;18.30;99.90;;;;;;5052184;28;20501;-75